Time;durP1;ratioP1;P1;durP2;ratioP2;P2;SDS_P1;SDS_P2;PMS_P1;PMS_P2;Temp;Humidity;BMP_temperature;BMP_pressure;BME280_temperature;BME280_humidity;BME280_pressure;Samples;Min_cycle;Max_cycle;Signal;HPM_P1;HPM_P2
2023/12/17 00:01:51;;;;;;;7.43;3.50;;;;;;;9.22;100.00;103538.78;7396406;19;20281;-79
2023/12/17 00:04:20;;;;;;;8.80;3.22;;;;;;;9.22;100.00;103507.38;7395168;19;19943;-79
2023/12/17 00:06:51;;;;;;;10.32;3.35;;;;;;;9.24;100.00;103520.72;7394010;19;19922;-79
2023/12/17 00:09:32;;;;;;;8.32;3.10;;;;;;;9.25;100.00;103512.56;7395834;19;19994;-79
2023/12/17 00:12:00;;;;;;;6.88;3.20;;;;;;;9.24;100.00;103523.41;7394798;19;19925;-79
2023/12/17 00:14:29;;;;;;;7.00;3.15;;;;;;;9.23;100.00;103517.19;7396603;19;19926;-79
2023/12/17 00:16:58;;;;;;;6.05;3.00;;;;;;;9.23;100.00;103514.50;7394756;19;20341;-79
2023/12/17 00:19:27;;;;;;;6.97;3.50;;;;;;;9.23;100.00;103509.13;7395938;19;20372;-79
2023/12/17 00:21:58;;;;;;;9.43;3.40;;;;;;;9.23;100.00;103514.50;7394683;19;19919;-79
2023/12/17 00:24:27;;;;;;;8.85;2.97;;;;;;;9.23;100.00;103527.06;7395344;19;19918;-79
2023/12/17 00:27:16;;;;;;;11.85;2.95;;;;;;;9.22;100.00;103528.91;7395429;19;19923;-79
2023/12/17 00:29:44;;;;;;;6.60;2.85;;;;;;;9.23;100.00;103529.78;7398044;19;19922;-78
2023/12/17 00:32:13;;;;;;;7.15;3.30;;;;;;;9.23;100.00;103525.25;7394762;19;19927;-79
2023/12/17 00:34:41;;;;;;;5.43;2.90;;;;;;;9.24;100.00;103526.94;7394124;19;19947;-79
2023/12/17 00:37:13;;;;;;;12.38;3.00;;;;;;;9.25;100.00;103528.69;7395252;19;20012;-79
2023/12/17 00:39:42;;;;;;;5.65;3.08;;;;;;;9.25;100.00;103528.69;7392951;19;19919;-79
2023/12/17 00:42:10;;;;;;;13.98;4.30;;;;;;;9.25;100.00;103535.88;7395309;19;20368;-78
2023/12/17 00:44:39;;;;;;;11.70;3.08;;;;;;;9.24;100.00;103529.66;7394219;19;19922;-79
2023/12/17 00:47:08;;;;;;;12.45;2.95;;;;;;;9.24;100.00;103567.31;7394742;19;19926;-81
2023/12/17 00:49:36;;;;;;;7.50;3.00;;;;;;;9.26;100.00;103551.06;7393490;19;19922;-79
2023/12/17 00:52:05;;;;;;;7.45;3.20;;;;;;;9.25;100.00;103560.97;7395069;19;19922;-79
2023/12/17 00:54:37;;;;;;;7.25;2.92;;;;;;;9.27;100.00;103539.34;7393218;19;20086;-80
2023/12/17 00:57:06;;;;;;;8.13;4.05;;;;;;;9.25;100.00;103552.03;7393645;19;20042;-79
2023/12/17 00:59:34;;;;;;;6.05;2.63;;;;;;;9.27;100.00;103550.13;7393603;19;19922;-78
2023/12/17 01:02:03;;;;;;;6.88;3.05;;;;;;;9.28;100.00;103559.88;7398664;19;20667;-79
2023/12/17 01:04:32;;;;;;;7.00;3.20;;;;;;;9.27;100.00;103540.22;7399468;19;19918;-79
2023/12/17 01:07:00;;;;;;;4.75;2.97;;;;;;;9.27;100.00;103550.97;7399162;19;19938;-79
2023/12/17 01:09:29;;;;;;;7.85;2.78;;;;;;;9.29;100.00;103553.53;7400879;19;19936;-79
2023/12/17 01:12:03;;;;;;;5.82;2.65;;;;;;;9.28;100.00;103555.38;7399227;19;19915;-79
2023/12/17 01:14:34;;;;;;;5.18;2.83;;;;;;;9.28;100.00;103557.19;7399321;19;19992;-79
2023/12/17 01:17:03;;;;;;;7.43;3.05;;;;;;;9.29;100.00;103569.69;7398654;19;19958;-79
2023/12/17 01:19:33;;;;;;;11.70;3.20;;;;;;;9.29;100.00;103575.06;7400326;19;19925;-79
2023/12/17 01:22:02;;;;;;;6.80;2.78;;;;;;;9.28;100.00;103574.19;7398591;19;20332;-79
2023/12/17 01:24:31;;;;;;;12.05;3.78;;;;;;;9.29;100.00;103584.00;7399368;19;19915;-79
2023/12/17 01:27:03;;;;;;;9.07;3.05;;;;;;;9.28;100.00;103586.78;7397954;19;20360;-78
2023/12/17 01:29:31;;;;;;;5.28;2.95;;;;;;;9.29;100.00;103583.13;7398908;19;19915;-81
2023/12/17 01:32:20;;;;;;;6.55;2.88;;;;;;;9.28;100.00;103570.66;7396872;19;19918;-78
2023/12/17 01:34:49;;;;;;;7.10;3.15;;;;;;;9.28;100.00;103568.81;7398277;19;20342;-78
2023/12/17 01:37:17;;;;;;;5.93;2.92;;;;;;;9.30;100.00;103579.50;7401446;19;19922;-80
2023/12/17 01:39:46;;;;;;;8.88;3.58;;;;;;;9.29;100.00;103577.75;7401738;19;19918;-80
2023/12/17 01:42:17;;;;;;;6.70;3.03;;;;;;;9.28;100.00;103570.66;7405867;19;19943;-81
2023/12/17 01:44:46;;;;;;;5.78;2.58;;;;;;;9.28;100.00;103582.28;7397316;19;19955;-81
2023/12/17 01:47:14;;;;;;;6.05;2.65;;;;;;;9.28;100.00;103576.03;7399208;19;19927;-78
2023/12/17 01:49:43;;;;;;;7.80;3.08;;;;;;;9.29;100.00;103567.00;7397591;19;19918;-81
2023/12/17 01:52:12;;;;;;;6.05;2.90;;;;;;;9.29;100.00;103565.16;7397971;19;20389;-81
2023/12/17 01:54:42;;;;;;;6.68;2.92;;;;;;;9.30;100.00;103571.41;7397022;19;20850;-78
2023/12/17 01:57:10;;;;;;;5.53;2.70;;;;;;;9.29;100.00;103562.47;7397723;19;19978;-80
2023/12/17 01:59:42;;;;;;;5.05;2.50;;;;;;;9.30;100.00;103576.81;7398514;19;19919;-80
2023/12/17 02:02:12;;;;;;;8.88;3.10;;;;;;;9.30;100.00;103566.91;7397677;19;19922;-80
2023/12/17 02:04:41;;;;;;;6.90;2.70;;;;;;;9.32;100.00;103573.03;7397100;19;19922;-80
2023/12/17 02:07:10;;;;;;;5.30;2.80;;;;;;;9.31;100.00;103575.84;7394016;19;19938;-80
2023/12/17 02:09:39;;;;;;;7.80;2.97;;;;;;;9.33;100.00;103573.88;7396809;19;19918;-80
2023/12/17 02:12:08;;;;;;;9.05;2.70;;;;;;;9.33;100.00;103571.19;7396107;19;19927;-80
2023/12/17 02:14:37;;;;;;;6.40;3.10;;;;;;;9.32;100.00;103599.94;7397440;19;19946;-80
2023/12/17 02:17:09;;;;;;;5.07;2.80;;;;;;;9.33;100.00;103579.28;7396835;19;19922;-78
2023/12/17 02:19:37;;;;;;;5.25;2.30;;;;;;;9.34;100.00;103576.50;7397366;19;19975;-78
2023/12/17 02:22:07;;;;;;;9.68;2.97;;;;;;;9.34;100.00;103575.63;7396342;19;20345;-81
2023/12/17 02:24:58;;;;;;;3.65;2.65;;;;;;;9.34;100.00;103570.25;7394907;19;20280;-78
2023/12/17 02:27:28;;;;;;;5.45;3.03;;;;;;;9.35;100.00;103561.22;7398065;19;20253;-78
2023/12/17 02:29:57;;;;;;;5.43;2.45;;;;;;;9.34;100.00;103571.09;7398557;19;19919;-78
2023/12/17 02:32:26;;;;;;;5.57;3.47;;;;;;;9.35;100.00;103559.38;7397493;19;19953;-78
2023/12/17 02:34:55;;;;;;;4.95;2.83;;;;;;;9.35;100.00;103550.47;7398556;19;19923;-80
2023/12/17 02:37:24;;;;;;;6.53;2.47;;;;;;;9.35;100.00;103566.59;7396966;19;19943;-80
2023/12/17 02:39:52;;;;;;;5.25;2.40;;;;;;;9.34;100.00;103572.94;7396359;19;19923;-80
2023/12/17 02:42:24;;;;;;;4.28;2.35;;;;;;;9.33;100.00;103564.00;7398152;19;19918;-78
2023/12/17 02:44:52;;;;;;;7.70;2.50;;;;;;;9.34;100.00;103571.09;7397191;19;19933;-78
2023/12/17 02:47:21;;;;;;;2.75;2.17;;;;;;;9.35;100.00;103555.84;7397380;19;19934;-78
2023/12/17 02:49:50;;;;;;;8.05;2.65;;;;;;;9.36;100.00;103547.63;7398810;19;19919;-80
2023/12/17 02:52:19;;;;;;;8.57;2.75;;;;;;;9.36;100.00;103546.81;7398279;19;19997;-80
2023/12/17 02:54:48;;;;;;;5.45;2.50;;;;;;;9.36;100.00;103544.13;7404060;19;19915;-80
2023/12/17 02:57:17;;;;;;;6.32;2.83;;;;;;;9.37;100.00;103544.00;7396373;19;19939;-78
2023/12/17 03:00:09;;;;;;;5.85;2.60;;;;;;;9.37;100.00;103532.38;7396247;19;19915;-80
2023/12/17 03:02:38;;;;;;;6.63;2.42;;;;;;;9.37;100.00;103540.44;7397694;19;20339;-80
2023/12/17 03:05:08;;;;;;;8.05;3.13;;;;;;;9.37;100.00;103540.44;7397215;19;19942;-80
2023/12/17 03:07:36;;;;;;;7.28;2.88;;;;;;;9.37;100.00;103545.81;7397313;19;19922;-80
2023/12/17 03:10:06;;;;;;;5.97;2.42;;;;;;;9.37;100.00;103554.75;7397379;19;19982;-80
2023/12/17 03:12:34;;;;;;;8.82;2.92;;;;;;;9.38;100.00;103537.66;7398018;19;19922;-78
2023/12/17 03:15:04;;;;;;;5.82;2.83;;;;;;;9.37;100.00;103544.00;7397133;19;19926;-80
2023/12/17 03:17:37;;;;;;;3.63;2.33;;;;;;;9.36;100.00;103526.13;7398656;19;19919;-80
2023/12/17 03:20:06;;;;;;;4.85;2.58;;;;;;;9.36;100.00;103523.44;7396498;19;19931;-80
2023/12/17 03:22:35;;;;;;;8.77;2.75;;;;;;;9.38;100.00;103515.25;7397554;19;19919;-78
2023/12/17 03:25:04;;;;;;;5.38;2.63;;;;;;;9.38;100.00;103509.88;7396038;19;20289;-78
2023/12/17 03:27:32;;;;;;;5.75;2.63;;;;;;;9.37;100.00;103506.31;7398534;19;20479;-80
2023/12/17 03:30:01;;;;;;;5.75;2.75;;;;;;;9.37;100.00;103500.09;7396305;19;19935;-80
2023/12/17 03:32:29;;;;;;;6.20;2.55;;;;;;;9.36;100.00;103507.28;7397295;19;19919;-80
2023/12/17 03:35:01;;;;;;;6.38;2.58;;;;;;;9.35;100.00;103513.66;7397605;19;19944;-80
2023/12/17 03:37:30;;;;;;;6.47;2.30;;;;;;;9.35;100.00;103510.09;7397632;19;20495;-80
2023/12/17 03:39:58;;;;;;;4.65;2.38;;;;;;;9.35;100.00;103512.78;7396400;19;19925;-80
2023/12/17 03:42:27;;;;;;;4.20;2.83;;;;;;;9.35;100.00;103502.03;7397927;19;19923;-80
2023/12/17 03:44:56;;;;;;;4.53;2.63;;;;;;;9.36;100.00;103501.91;7397648;19;19918;-80
2023/12/17 03:47:25;;;;;;;8.40;2.85;;;;;;;9.36;100.00;103517.22;7395388;19;19948;-79
2023/12/17 03:49:54;;;;;;;5.20;2.58;;;;;;;9.37;100.00;103505.47;7396692;19;20344;-79
2023/12/17 03:52:25;;;;;;;4.97;2.20;;;;;;;9.37;100.00;103492.00;7396176;19;19922;-80
2023/12/17 03:54:53;;;;;;;6.43;2.90;;;;;;;9.36;100.00;103493.84;7397573;19;19923;-80
2023/12/17 03:57:22;;;;;;;8.82;2.28;;;;;;;9.34;100.00;103487.72;7396628;19;19922;-80
2023/12/17 03:59:51;;;;;;;5.97;2.65;;;;;;;9.35;100.00;103483.19;7398284;19;19914;-79
2023/12/17 04:02:19;;;;;;;10.13;2.58;;;;;;;9.35;100.00;103497.50;7401924;19;20259;-79
2023/12/17 04:04:48;;;;;;;8.65;2.70;;;;;;;9.37;100.00;103492.00;7407480;19;19935;-80
2023/12/17 04:07:17;;;;;;;7.15;2.50;;;;;;;9.37;100.00;103497.38;7402023;19;19919;-80
2023/12/17 04:09:49;;;;;;;7.50;2.58;;;;;;;9.39;100.00;103490.09;7397158;19;19918;-80
2023/12/17 04:12:18;;;;;;;5.03;2.40;;;;;;;9.39;100.00;103488.28;7394674;19;19926;-80
2023/12/17 04:14:46;;;;;;;8.23;2.83;;;;;;;9.40;100.00;103494.50;7396460;19;20324;-80
2023/12/17 04:17:16;;;;;;;6.30;2.40;;;;;;;9.39;100.00;103484.72;7395216;19;19929;-80
2023/12/17 04:19:46;;;;;;;7.82;3.13;;;;;;;9.37;100.00;103497.38;7395495;19;20373;-80
2023/12/17 04:22:14;;;;;;;3.55;2.25;;;;;;;9.37;100.00;103503.63;7396164;19;19926;-80
2023/12/17 04:24:43;;;;;;;6.28;3.00;;;;;;;9.38;100.00;103501.81;7394472;19;20276;-80
2023/12/17 04:27:15;;;;;;;8.52;2.90;;;;;;;9.38;100.00;103497.28;7395532;19;19918;-80
2023/12/17 04:29:44;;;;;;;5.20;2.50;;;;;;;9.39;100.00;103487.41;7393280;19;19943;-80
2023/12/17 04:32:13;;;;;;;8.90;2.78;;;;;;;9.40;100.00;103502.59;7395227;19;19955;-80
2023/12/17 04:34:42;;;;;;;5.05;2.28;;;;;;;9.40;100.00;103483.75;7394798;19;19923;-80
2023/12/17 04:37:11;;;;;;;6.03;2.72;;;;;;;9.41;100.00;103496.22;7400251;19;19950;-80
2023/12/17 04:39:41;;;;;;;6.78;2.88;;;;;;;9.39;100.00;103490.97;7399170;19;19943;-80
2023/12/17 04:42:10;;;;;;;6.05;2.60;;;;;;;9.41;100.00;103493.53;7401157;19;19923;-80
2023/12/17 04:44:42;;;;;;;11.65;2.90;;;;;;;9.40;100.00;103487.31;7399769;19;19929;-80
2023/12/17 04:47:11;;;;;;;9.13;2.60;;;;;;;9.41;100.00;103485.44;7400534;19;20961;-79
2023/12/17 04:49:41;;;;;;;4.75;2.38;;;;;;;9.40;100.00;103479.25;7400430;19;19923;-80
2023/12/17 04:52:09;;;;;;;6.72;2.75;;;;;;;9.40;100.00;103478.38;7400992;19;19942;-80
2023/12/17 04:54:38;;;;;;;5.53;2.47;;;;;;;9.42;100.00;103476.41;7399824;19;20552;-80
2023/12/17 04:57:07;;;;;;;9.52;2.92;;;;;;;9.42;100.00;103471.03;7399410;19;20261;-80
2023/12/17 04:59:36;;;;;;;7.38;2.70;;;;;;;9.41;100.00;103474.69;7400368;19;19943;-80
2023/12/17 05:02:07;;;;;;;8.50;2.70;;;;;;;9.40;100.00;103459.53;7399935;19;19918;-80
2023/12/17 05:04:36;;;;;;;6.00;2.40;;;;;;;9.39;100.00;103465.88;7398839;19;19926;-80
2023/12/17 05:07:04;;;;;;;5.60;2.75;;;;;;;9.38;100.00;103473.09;7399109;19;19922;-80
2023/12/17 05:09:33;;;;;;;7.85;2.40;;;;;;;9.39;100.00;103472.13;7400092;19;19922;-80
2023/12/17 05:12:02;;;;;;;5.65;2.50;;;;;;;9.38;100.00;103459.63;7398522;19;19947;-80
2023/12/17 05:14:31;;;;;;;5.40;2.47;;;;;;;9.38;100.00;103464.16;7401083;19;19915;-80
2023/12/17 05:16:59;;;;;;;5.65;2.60;;;;;;;9.37;100.00;103468.66;7400929;19;19915;-79
2023/12/17 05:19:31;;;;;;;5.57;2.72;;;;;;;9.36;100.00;103466.94;7400166;19;19922;-80
2023/12/17 05:22:00;;;;;;;5.53;2.58;;;;;;;9.35;100.00;103470.63;7399824;19;19930;-80
2023/12/17 05:24:28;;;;;;;8.52;2.92;;;;;;;9.33;100.00;103477.06;7397324;19;20249;-80
2023/12/17 05:26:57;;;;;;;5.55;2.95;;;;;;;9.32;100.00;103484.25;7399665;19;19923;-80
2023/12/17 05:29:25;;;;;;;7.13;2.65;;;;;;;9.31;100.00;103487.94;7397145;19;20389;-80
2023/12/17 05:32:14;;;;;;;10.43;2.80;;;;;;;9.30;100.00;103479.97;7395932;19;19922;-80
2023/12/17 05:34:45;;;;;;;5.78;2.95;;;;;;;9.31;100.00;103487.94;7398321;19;19939;-80
2023/12/17 05:37:14;;;;;;;6.85;3.38;;;;;;;9.31;100.00;103490.63;7398341;19;19935;-80
2023/12/17 05:39:43;;;;;;;5.88;3.05;;;;;;;9.32;100.00;103480.72;7398976;19;19943;-80
2023/12/17 05:42:11;;;;;;;11.13;2.70;;;;;;;9.30;100.00;103477.25;7397702;19;19927;-80
2023/12/17 05:44:40;;;;;;;10.43;3.30;;;;;;;9.31;100.00;103479.00;7398484;19;19966;-80
2023/12/17 05:47:08;;;;;;;9.63;2.85;;;;;;;9.31;100.00;103484.38;7396341;19;19922;-80
2023/12/17 05:49:39;;;;;;;7.15;2.80;;;;;;;9.29;100.00;103489.84;7396310;19;19919;-80
2023/12/17 05:52:11;;;;;;;8.52;3.22;;;;;;;9.28;100.00;103506.94;7399196;19;19952;-80
2023/12/17 05:54:40;;;;;;;7.88;3.63;;;;;;;9.30;100.00;103482.66;7398708;19;20042;-80
2023/12/17 05:57:08;;;;;;;10.48;3.30;;;;;;;9.28;100.00;103487.25;7398202;19;19927;-80
2023/12/17 05:59:37;;;;;;;7.32;3.47;;;;;;;9.26;100.00;103482.00;7397603;19;19918;-80
2023/12/17 06:02:06;;;;;;;6.35;3.10;;;;;;;9.24;100.00;103486.59;7397673;19;19942;-80
2023/12/17 06:04:35;;;;;;;9.55;4.30;;;;;;;9.24;100.00;103493.81;7398785;19;19927;-80
2023/12/17 06:07:03;;;;;;;8.07;3.38;;;;;;;9.23;100.00;103492.97;7398137;19;19914;-80
2023/12/17 06:09:34;;;;;;;4.65;2.78;;;;;;;9.22;100.00;103487.69;7399141;19;19933;-80
2023/12/17 06:12:03;;;;;;;8.95;3.42;;;;;;;9.21;100.00;103485.97;7398257;19;19915;-80
2023/12/17 06:14:32;;;;;;;6.85;3.30;;;;;;;9.19;100.00;103496.81;7399441;19;19919;-80
2023/12/17 06:17:00;;;;;;;8.50;3.28;;;;;;;9.18;100.00;103496.94;7398321;19;20282;-80
2023/12/17 06:19:29;;;;;;;9.85;3.10;;;;;;;9.16;100.00;103502.41;7398615;19;19922;-79
2023/12/17 06:22:00;;;;;;;7.47;2.63;;;;;;;9.17;100.00;103489.81;7400622;19;19927;-79
2023/12/17 06:24:28;;;;;;;4.00;2.67;;;;;;;9.16;100.00;103486.28;7403132;19;19958;-79
2023/12/17 06:27:00;;;;;;;10.68;3.08;;;;;;;9.14;100.00;103487.34;7398659;19;19956;-79
2023/12/17 06:29:28;;;;;;;9.57;3.17;;;;;;;9.13;100.00;103485.63;7400169;19;19946;-80
2023/12/17 06:31:57;;;;;;;7.47;2.97;;;;;;;9.14;100.00;103474.78;7399230;19;19934;-80
2023/12/17 06:34:25;;;;;;;7.07;2.20;;;;;;;9.11;100.00;103486.59;7397911;19;20368;-80
2023/12/17 06:36:54;;;;;;;4.70;2.55;;;;;;;9.09;100.00;103467.03;7396864;19;20728;-79
2023/12/17 06:39:43;;;;;;;7.32;2.38;;;;;;;9.08;100.00;103465.28;7395889;19;19925;-79
2023/12/17 06:42:15;;;;;;;7.68;2.72;;;;;;;9.06;100.00;103471.75;7398294;19;19922;-79
2023/12/17 06:44:43;;;;;;;8.10;3.10;;;;;;;9.04;100.00;103466.47;7398200;19;20245;-79
2023/12/17 06:47:12;;;;;;;6.60;2.97;;;;;;;9.04;100.00;103465.59;7397481;19;20287;-79
2023/12/17 06:49:41;;;;;;;5.82;2.60;;;;;;;9.00;100.00;103475.69;7397407;19;19918;-79
2023/12/17 06:52:09;;;;;;;6.80;2.80;;;;;;;8.99;100.00;103470.41;7398087;19;19914;-79
2023/12/17 06:54:38;;;;;;;8.10;3.72;;;;;;;8.96;100.00;103479.56;7398139;19;19956;-79
2023/12/17 06:57:09;;;;;;;5.93;2.40;;;;;;;8.96;100.00;103484.06;7397857;19;19919;-79
2023/12/17 06:59:40;;;;;;;6.15;3.00;;;;;;;8.94;100.00;103478.78;7396130;19;19926;-79
2023/12/17 07:02:09;;;;;;;5.53;2.78;;;;;;;8.93;100.00;103478.91;7398434;19;19918;-79
2023/12/17 07:04:38;;;;;;;4.90;2.65;;;;;;;8.90;100.00;103528.34;7397185;19;19932;-79
2023/12/17 07:07:26;;;;;;;5.68;2.80;;;;;;;8.91;100.00;103489.75;7395530;19;19922;-79
2023/12/17 07:09:55;;;;;;;10.13;2.72;;;;;;;8.87;100.00;103495.44;7398697;19;19926;-79
2023/12/17 07:12:24;;;;;;;5.15;2.00;;;;;;;8.88;100.00;103491.78;7397263;19;20595;-79
2023/12/17 07:14:55;;;;;;;3.33;2.10;;;;;;;8.86;100.00;103478.44;7398025;19;19915;-79
2023/12/17 07:17:24;;;;;;;7.78;2.00;;;;;;;8.87;100.00;103472.09;7397760;19;19926;-79
2023/12/17 07:19:53;;;;;;;5.03;2.30;;;;;;;8.84;100.00;103480.38;7396045;19;19926;-79
2023/12/17 07:22:22;;;;;;;8.70;2.40;;;;;;;8.87;100.00;103493.63;7397747;19;19918;-79
2023/12/17 07:24:51;;;;;;;6.63;2.30;;;;;;;8.86;100.00;103482.97;7395732;19;20282;-79
2023/12/17 07:27:20;;;;;;;7.07;2.75;;;;;;;8.88;100.00;103483.72;7396543;19;19924;-78
2023/12/17 07:29:48;;;;;;;7.10;2.28;;;;;;;8.86;100.00;103456.94;7395020;19;19918;-78
2023/12/17 07:32:19;;;;;;;9.80;2.40;;;;;;;8.84;100.00;103458.88;7397106;19;19914;-78
2023/12/17 07:35:09;;;;;;;6.88;2.30;;;;;;;8.85;100.00;103473.16;7395232;19;19925;-78
2023/12/17 07:37:38;;;;;;;4.45;2.60;;;;;;;8.84;100.00;103458.88;7397118;19;19955;-78
2023/12/17 07:40:07;;;;;;;5.40;2.45;;;;;;;8.84;100.00;103472.31;7396950;19;19958;-78
2023/12/17 07:42:36;;;;;;;6.03;3.00;;;;;;;8.85;100.00;103476.72;7396264;19;19935;-81
2023/12/17 07:45:06;;;;;;;9.15;2.90;;;;;;;8.85;100.00;103474.03;7396735;19;19926;-78
2023/12/17 07:47:38;;;;;;;7.07;3.22;;;;;;;8.86;100.00;103474.88;7395845;19;19940;-78
2023/12/17 07:50:08;;;;;;;7.40;3.10;;;;;;;8.87;100.00;103484.69;7396934;19;19943;-78
2023/12/17 07:52:37;;;;;;;9.20;3.33;;;;;;;8.87;100.00;103485.56;7394722;19;19942;-78
2023/12/17 07:55:06;;;;;;;8.88;3.30;;;;;;;8.87;100.00;103469.41;7396220;19;19986;-78
2023/12/17 07:57:34;;;;;;;6.38;3.33;;;;;;;8.87;100.00;103466.72;7395582;19;19914;-78
2023/12/17 08:00:03;;;;;;;7.32;3.20;;;;;;;8.88;100.00;103495.34;7397196;19;19927;-78
2023/12/17 08:02:31;;;;;;;5.25;3.17;;;;;;;8.89;100.00;103464.78;7393874;19;20398;-78
2023/12/17 08:05:07;;;;;;;6.68;3.50;;;;;;;8.89;100.00;103480.06;7395677;19;20270;-78
2023/12/17 08:07:36;;;;;;;6.25;2.85;;;;;;;8.89;100.00;103474.69;7394985;19;19918;-78
2023/12/17 08:10:07;;;;;;;10.35;3.42;;;;;;;8.89;100.00;103470.16;7392805;19;19919;-78
2023/12/17 08:12:35;;;;;;;9.57;3.60;;;;;;;8.88;100.00;103473.84;7395596;19;19915;-78
2023/12/17 08:15:04;;;;;;;10.80;3.97;;;;;;;8.87;100.00;103469.41;7395663;19;19933;-78
2023/12/17 08:17:32;;;;;;;8.45;3.53;;;;;;;8.88;100.00;103470.28;7396487;19;19921;-78
2023/12/17 08:20:02;;;;;;;8.20;3.03;;;;;;;8.84;100.00;103493.81;7394567;19;19929;-78
2023/12/17 08:22:34;;;;;;;5.60;2.80;;;;;;;8.82;100.00;103463.50;7396460;19;20371;-78
2023/12/17 08:25:02;;;;;;;6.75;3.13;;;;;;;8.84;100.00;103479.53;7395673;19;19942;-78
2023/12/17 08:27:31;;;;;;;6.55;3.70;;;;;;;8.83;100.00;103473.28;7396233;19;19923;-78
2023/12/17 08:30:00;;;;;;;12.35;4.05;;;;;;;8.84;100.00;103468.78;7394669;19;19923;-78
2023/12/17 08:32:31;;;;;;;12.15;3.35;;;;;;;8.82;100.00;103471.56;7396453;19;20379;-78
2023/12/17 08:35:01;;;;;;;9.95;3.70;;;;;;;8.83;100.00;103470.59;7394222;19;19918;-78
2023/12/17 08:37:30;;;;;;;9.32;3.78;;;;;;;8.84;100.00;103483.06;7395158;19;20640;-78
2023/12/17 08:40:03;;;;;;;8.35;3.47;;;;;;;8.84;100.00;103482.22;7395031;19;19914;-78
2023/12/17 08:42:31;;;;;;;8.63;3.72;;;;;;;8.84;100.00;103469.63;7396850;19;19946;-78
2023/12/17 08:45:00;;;;;;;8.40;4.05;;;;;;;8.85;100.00;103468.66;7399244;19;19955;-78
2023/12/17 08:47:28;;;;;;;7.53;3.90;;;;;;;8.86;100.00;103448.00;7394659;19;20353;-78
2023/12/17 08:49:59;;;;;;;9.52;4.45;;;;;;;8.85;100.00;103465.97;7395215;19;19926;-78
2023/12/17 08:52:29;;;;;;;8.55;4.97;;;;;;;8.85;100.00;103443.59;7394102;19;20265;-78
2023/12/17 08:54:57;;;;;;;9.80;4.50;;;;;;;8.85;100.00;103455.22;7395713;19;19919;-78
2023/12/17 08:57:29;;;;;;;12.70;5.63;;;;;;;8.85;100.00;103452.53;7394618;19;19944;-78
2023/12/17 08:59:57;;;;;;;8.40;4.05;;;;;;;8.86;100.00;103446.19;7394890;19;19943;-78
2023/12/17 09:02:26;;;;;;;9.32;4.47;;;;;;;8.89;100.00;103440.59;7392831;19;19926;-78
2023/12/17 09:04:55;;;;;;;8.25;5.13;;;;;;;8.89;100.00;103439.72;7394217;19;20593;-78
2023/12/17 09:07:23;;;;;;;12.15;4.85;;;;;;;8.90;100.00;103430.72;7392698;19;19933;-78
2023/12/17 09:09:52;;;;;;;8.93;5.30;;;;;;;8.90;100.00;103436.94;7393340;19;20528;-78
2023/12/17 09:12:21;;;;;;;9.73;4.85;;;;;;;8.90;100.00;103426.19;7392262;19;20377;-78
2023/12/17 09:14:52;;;;;;;8.55;4.45;;;;;;;8.90;100.00;103418.13;7392943;19;19922;-78
2023/12/17 09:17:21;;;;;;;9.70;4.22;;;;;;;8.92;100.00;103434.16;7392647;19;19926;-78
2023/12/17 09:19:50;;;;;;;9.23;3.97;;;;;;;8.92;100.00;103432.34;7392560;19;19918;-78
2023/12/17 09:22:20;;;;;;;8.68;5.45;;;;;;;8.92;100.00;103413.53;7397901;19;19923;-78
2023/12/17 09:24:48;;;;;;;8.10;4.75;;;;;;;8.94;100.00;103426.84;7399636;19;20451;-78
2023/12/17 09:27:17;;;;;;;11.85;5.45;;;;;;;8.92;100.00;103424.28;7399165;19;19918;-78
2023/12/17 09:29:45;;;;;;;8.40;5.05;;;;;;;8.94;100.00;103426.84;7399464;19;19954;-78
2023/12/17 09:32:17;;;;;;;11.98;4.72;;;;;;;8.93;100.00;103427.84;7399978;19;19945;-78
2023/12/17 09:34:45;;;;;;;8.27;4.70;;;;;;;8.94;100.00;103432.22;7399376;19;19915;-78
2023/12/17 09:37:14;;;;;;;11.02;5.40;;;;;;;8.95;100.00;103434.81;7399142;19;20504;-80
2023/12/17 09:39:43;;;;;;;10.63;5.00;;;;;;;8.96;100.00;103438.38;7398929;19;19932;-78
2023/12/17 09:42:31;;;;;;;9.52;5.28;;;;;;;8.97;100.00;103438.25;7397776;19;19934;-78
2023/12/17 09:45:00;;;;;;;18.40;6.72;;;;;;;9.00;100.00;103432.69;7398782;19;20010;-78
2023/12/17 09:47:32;;;;;;;12.57;6.00;;;;;;;9.02;100.00;103435.25;7398601;19;19919;-78
2023/12/17 09:50:01;;;;;;;16.95;5.28;;;;;;;9.02;100.00;103432.56;7399775;19;19946;-78
2023/12/17 09:52:50;;;;;;;9.88;4.65;;;;;;;9.02;100.00;103448.69;7396783;19;19914;-78
2023/12/17 09:55:18;;;;;;;12.25;5.60;;;;;;;9.02;100.00;103443.31;7398613;19;20355;-78
2023/12/17 09:57:47;;;;;;;17.35;5.72;;;;;;;9.03;100.00;103453.97;7398093;19;19986;-78
2023/12/17 10:00:17;;;;;;;9.15;5.53;;;;;;;9.04;100.00;103444.94;7398435;19;20284;-78
2023/12/17 10:02:48;;;;;;;12.73;5.90;;;;;;;9.05;100.00;103433.22;7398940;19;19922;-78
2023/12/17 10:05:16;;;;;;;11.80;5.00;;;;;;;9.03;100.00;103432.47;7399934;19;19923;-78
2023/12/17 10:07:46;;;;;;;11.73;5.82;;;;;;;9.06;100.00;103418.81;7401733;19;20362;-78
2023/12/17 10:10:15;;;;;;;12.40;5.93;;;;;;;9.06;100.00;103436.78;7398784;19;19922;-78
2023/12/17 10:12:44;;;;;;;13.00;6.70;;;;;;;9.09;100.00;103417.75;7397059;19;19949;-78
2023/12/17 10:15:13;;;;;;;11.35;6.03;;;;;;;9.11;100.00;103427.41;7397917;19;19919;-78
2023/12/17 10:17:42;;;;;;;15.35;7.03;;;;;;;9.13;100.00;103416.56;7398623;19;19925;-78
2023/12/17 10:20:20;;;;;;;13.23;5.90;;;;;;;9.13;100.00;103419.25;7398154;19;19925;-78
2023/12/17 10:22:59;;;;;;;19.52;6.55;;;;;;;9.15;100.00;103409.25;7398665;19;19918;-78
2023/12/17 10:25:28;;;;;;;13.77;5.90;;;;;;;9.18;100.00;103427.88;7398180;19;20470;-78
2023/12/17 10:27:59;;;;;;;14.05;6.88;;;;;;;9.19;100.00;103421.50;7397613;19;19927;-78
2023/12/17 10:30:30;;;;;;;15.10;6.88;;;;;;;9.20;100.00;103415.16;7398454;19;20076;-78
2023/12/17 10:33:00;;;;;;;15.05;6.55;;;;;;;9.22;100.00;103404.31;7395840;19;20521;-78
2023/12/17 10:35:33;;;;;;;12.90;6.28;;;;;;;9.22;100.00;103394.41;7397411;19;20404;-78
2023/12/17 10:38:23;;;;;;;14.82;6.32;;;;;;;9.25;100.00;103393.34;7396171;19;20272;-78
2023/12/17 10:40:53;;;;;;;14.52;6.95;;;;;;;9.25;100.00;103390.66;7398252;19;19930;-78
2023/12/17 10:43:23;;;;;;;14.88;6.60;;;;;;;9.26;100.00;103378.94;7398203;19;20584;-78
2023/12/17 10:45:54;;;;;;;16.45;6.63;;;;;;;9.27;100.00;103386.03;7397114;19;20801;-78
2023/12/17 10:48:23;;;;;;;13.65;6.93;;;;;;;9.27;100.00;103403.03;7398256;19;19922;-78
2023/12/17 10:51:15;;;;;;;13.50;7.43;;;;;;;9.25;100.00;103378.06;7396235;19;19923;-78
2023/12/17 10:53:43;;;;;;;17.05;8.30;;;;;;;9.25;100.00;103372.69;7398716;19;19930;-78
2023/12/17 10:56:13;;;;;;;18.50;9.32;;;;;;;9.26;100.00;103370.84;7397515;19;19926;-78
2023/12/17 10:58:43;;;;;;;15.60;8.07;;;;;;;9.28;100.00;103356.31;7396288;19;20021;-78
2023/12/17 11:01:12;;;;;;;16.15;7.68;;;;;;;9.27;100.00;103370.75;7398350;19;19918;-78
2023/12/17 11:03:42;;;;;;;17.45;7.85;;;;;;;9.29;100.00;103376.88;7400551;19;19939;-78
2023/12/17 11:06:10;;;;;;;15.38;8.02;;;;;;;9.28;100.00;103366.22;7401038;19;19910;-78
2023/12/17 11:08:42;;;;;;;18.40;8.40;;;;;;;9.26;100.00;103389.69;7396341;19;19922;-78
2023/12/17 11:11:10;;;;;;;17.25;9.05;;;;;;;9.27;100.00;103357.31;7396549;19;20303;-78
2023/12/17 11:13:39;;;;;;;19.08;9.75;;;;;;;9.27;100.00;103360.00;7397686;19;19932;-78
2023/12/17 11:16:24;;;;;;;23.00;8.48;;;;;;;9.25;100.00;103366.44;7396993;19;20345;-78
2023/12/17 11:18:53;;;;;;;21.05;8.43;;;;;;;9.27;100.00;103361.81;7397774;19;19922;-78
2023/12/17 11:21:21;;;;;;;20.50;9.18;;;;;;;9.29;100.00;103358.03;7402018;19;19943;-78
2023/12/17 11:23:54;;;;;;;21.23;8.32;;;;;;;9.32;100.00;103359.69;7398044;19;20354;-78
2023/12/17 11:26:22;;;;;;;20.95;9.18;;;;;;;9.33;100.00;103382.91;7395259;19;20275;-78
2023/12/17 11:28:52;;;;;;;16.23;8.48;;;;;;;9.33;100.00;103353.31;7396346;19;19930;-78
2023/12/17 11:31:21;;;;;;;15.23;7.78;;;;;;;9.33;100.00;103348.78;7396792;19;19923;-78
2023/12/17 11:33:50;;;;;;;16.40;8.23;;;;;;;9.36;100.00;103345.03;7398045;19;19926;-78
2023/12/17 11:36:39;;;;;;;15.15;6.43;;;;;;;9.36;100.00;103366.56;7395058;19;19930;-78
2023/12/17 11:39:11;;;;;;;15.82;7.05;;;;;;;9.37;100.00;103344.91;7396987;19;20341;-78